Time;durP1;ratioP1;P1;durP2;ratioP2;P2;SDS_P1;SDS_P2;PMS_P1;PMS_P2;Temp;Humidity;BMP_temperature;BMP_pressure;BME280_temperature;BME280_humidity;BME280_pressure;Samples;Min_cycle;Max_cycle;Signal;HPM_P1;HPM_P2
2023/12/23 00:01:46;;;;;;;67.53;35.25;;;4.20;73.10;;;;;;6341863;22;20014;-65
2023/12/23 00:04:11;;;;;;;64.88;32.10;;;4.10;73.60;;;;;;6341498;22;20002;-65
2023/12/23 00:06:39;;;;;;;81.05;37.97;;;4.20;73.50;;;;;;6341525;22;20044;-65
2023/12/23 00:09:05;;;;;;;62.97;31.35;;;4.10;73.60;;;;;;6341856;22;20082;-65
2023/12/23 00:11:31;;;;;;;80.82;39.72;;;4.10;73.60;;;;;;6341545;22;20038;-65
2023/12/23 00:13:57;;;;;;;75.28;36.70;;;4.10;73.70;;;;;;6341980;22;20082;-65
2023/12/23 00:16:24;;;;;;;86.13;42.08;;;4.00;73.40;;;;;;6341002;22;20002;-65
2023/12/23 00:18:50;;;;;;;84.20;39.13;;;4.00;73.90;;;;;;6341422;22;19999;-65
2023/12/23 00:21:16;;;;;;;92.40;43.55;;;4.00;73.50;;;;;;6342247;22;19998;-66
2023/12/23 00:23:41;;;;;;;87.65;40.17;;;4.00;73.70;;;;;;6314207;22;20094;-66
2023/12/23 00:26:07;;;;;;;86.80;42.67;;;4.00;73.60;;;;;;6341438;22;20301;-65
2023/12/23 00:28:33;;;;;;;80.10;36.75;;;4.00;73.90;;;;;;6341717;22;20011;-66
2023/12/23 00:30:59;;;;;;;74.72;36.75;;;4.00;73.60;;;;;;6341719;22;20462;-66
2023/12/23 00:33:25;;;;;;;70.75;38.70;;;3.90;73.70;;;;;;6342054;22;20434;-65
2023/12/23 00:35:51;;;;;;;69.65;36.38;;;4.00;73.70;;;;;;6341046;22;20007;-66
2023/12/23 00:38:17;;;;;;;68.68;33.65;;;3.90;73.40;;;;;;6341990;22;20033;-65
2023/12/23 00:40:43;;;;;;;69.68;34.72;;;3.90;73.80;;;;;;6341412;22;20293;-66
2023/12/23 00:43:09;;;;;;;67.75;32.97;;;3.90;73.70;;;;;;6341643;22;20029;-66
2023/12/23 00:45:35;;;;;;;67.05;34.30;;;3.90;73.50;;;;;;6341608;22;20373;-65
2023/12/23 00:48:01;;;;;;;68.47;32.10;;;3.90;73.60;;;;;;6341608;22;20144;-66
2023/12/23 00:50:27;;;;;;;73.38;34.63;;;3.90;73.60;;;;;;6341340;22;20029;-65
2023/12/23 00:52:53;;;;;;;60.65;29.55;;;3.90;74.00;;;;;;6341296;22;20023;-66
2023/12/23 00:55:19;;;;;;;68.25;33.20;;;3.90;73.90;;;;;;6341102;22;20028;-65
2023/12/23 00:57:45;;;;;;;69.10;35.63;;;3.90;74.10;;;;;;6341205;22;20041;-65
2023/12/23 01:00:13;;;;;;;71.07;35.42;;;3.90;73.80;;;;;;6341582;22;20377;-66
2023/12/23 01:02:38;;;;;;;61.63;31.88;;;3.90;73.60;;;;;;6341311;22;20001;-66
2023/12/23 01:05:05;;;;;;;65.32;34.95;;;3.90;73.70;;;;;;6341900;22;20026;-65
2023/12/23 01:07:31;;;;;;;64.03;32.55;;;3.90;73.80;;;;;;6341863;22;20002;-66
2023/12/23 01:09:57;;;;;;;61.20;29.60;;;3.90;73.90;;;;;;6341236;22;20502;-65
2023/12/23 01:12:23;;;;;;;52.53;26.38;;;3.90;73.80;;;;;;6341104;22;20449;-65
2023/12/23 01:14:49;;;;;;;60.50;29.45;;;3.90;73.80;;;;;;6341238;22;20002;-65
2023/12/23 01:17:15;;;;;;;60.05;30.98;;;3.90;74.20;;;;;;6341015;22;20007;-65
2023/12/23 01:19:41;;;;;;;62.85;31.00;;;3.90;74.20;;;;;;6341189;22;20022;-66
2023/12/23 01:22:07;;;;;;;69.45;35.10;;;3.90;74.20;;;;;;6341554;22;20070;-65
2023/12/23 01:24:33;;;;;;;52.15;27.75;;;3.90;74.50;;;;;;6341463;22;20388;-66
2023/12/23 01:26:59;;;;;;;55.55;29.25;;;4.00;74.40;;;;;;6342458;22;20030;-65
2023/12/23 01:29:25;;;;;;;52.42;27.00;;;4.00;74.60;;;;;;6343566;22;20077;-65
2023/12/23 01:31:51;;;;;;;56.45;27.73;;;4.00;74.40;;;;;;6342871;22;20052;-66
2023/12/23 01:34:17;;;;;;;55.78;29.63;;;4.00;74.20;;;;;;6342920;22;20419;-65
2023/12/23 01:36:43;;;;;;;51.95;27.15;;;4.00;74.50;;;;;;6272636;22;20006;-66
2023/12/23 01:39:09;;;;;;;53.47;27.05;;;4.00;74.30;;;;;;6311489;22;20082;-65
2023/12/23 01:41:35;;;;;;;45.63;26.83;;;3.90;74.40;;;;;;6311546;22;20010;-65
2023/12/23 01:44:00;;;;;;;55.03;28.65;;;4.00;74.00;;;;;;6311604;22;19995;-65
2023/12/23 01:46:28;;;;;;;53.58;29.90;;;3.90;73.50;;;;;;6311451;22;19999;-66
2023/12/23 01:48:55;;;;;;;50.35;28.48;;;3.90;73.70;;;;;;6311567;22;20297;-65
2023/12/23 01:51:21;;;;;;;56.08;30.35;;;3.80;73.60;;;;;;6311468;22;20007;-65
2023/12/23 01:53:48;;;;;;;52.47;28.35;;;3.70;72.20;;;;;;6311787;22;19999;-65
2023/12/23 01:56:15;;;;;;;55.35;29.52;;;3.60;72.40;;;;;;6311699;22;20004;-65
2023/12/23 01:58:41;;;;;;;60.58;31.33;;;3.40;72.80;;;;;;6311974;22;20038;-66
2023/12/23 02:01:07;;;;;;;56.10;28.30;;;3.40;73.40;;;;;;6311500;22;20000;-65
2023/12/23 02:03:34;;;;;;;53.70;27.70;;;3.40;73.80;;;;;;6311332;22;20003;-66
2023/12/23 02:06:00;;;;;;;48.15;27.50;;;3.40;74.30;;;;;;6311713;22;20065;-65
2023/12/23 02:08:26;;;;;;;59.25;31.02;;;3.40;74.40;;;;;;6311268;22;20408;-65
2023/12/23 02:11:04;;;;;;;58.08;28.95;;;3.40;74.30;;;;;;6311656;22;19999;-66
2023/12/23 02:13:37;;;;;;;49.85;26.23;;;3.40;74.10;;;;;;6311282;22;20044;-66
2023/12/23 02:16:04;;;;;;;51.57;26.37;;;3.40;74.00;;;;;;6311654;22;20014;-66
2023/12/23 02:18:30;;;;;;;51.15;24.75;;;3.50;74.70;;;;;;6311044;22;20030;-65
2023/12/23 02:20:56;;;;;;;55.13;28.10;;;3.50;74.80;;;;;;6311253;22;20297;-65
2023/12/23 02:23:22;;;;;;;54.25;28.15;;;3.60;74.50;;;;;;6311210;22;19999;-65
2023/12/23 02:25:56;;;;;;;48.10;25.90;;;3.60;74.80;;;;;;6311127;22;19999;-65
2023/12/23 02:28:24;;;;;;;53.22;26.67;;;3.70;74.50;;;;;;6311176;22;20030;-65
2023/12/23 02:30:51;;;;;;;54.92;27.48;;;3.70;74.70;;;;;;6311789;22;20156;-65
2023/12/23 02:33:17;;;;;;;50.17;26.65;;;3.70;74.20;;;;;;6311028;22;20458;-65
2023/12/23 02:35:44;;;;;;;51.60;26.55;;;3.70;73.60;;;;;;6311081;22;20003;-65
2023/12/23 02:38:10;;;;;;;54.25;26.30;;;3.60;73.70;;;;;;6328359;22;20007;-66
2023/12/23 02:40:36;;;;;;;52.22;25.23;;;3.60;73.80;;;;;;6342277;22;19999;-66
2023/12/23 02:43:02;;;;;;;49.28;24.80;;;3.50;74.30;;;;;;6342976;22;20078;-66
2023/12/23 02:45:28;;;;;;;46.25;24.38;;;3.60;74.50;;;;;;6342246;22;20026;-66
2023/12/23 02:47:54;;;;;;;55.78;30.27;;;3.60;74.60;;;;;;6342816;22;19999;-65
2023/12/23 02:50:20;;;;;;;55.25;29.00;;;3.60;74.50;;;;;;6342175;22;20003;-66
2023/12/23 02:52:46;;;;;;;50.88;25.58;;;3.60;74.10;;;;;;6342875;22;20113;-64
2023/12/23 02:55:12;;;;;;;59.28;30.52;;;3.50;73.70;;;;;;6342851;22;19999;-64
2023/12/23 02:57:38;;;;;;;49.00;25.75;;;3.40;74.20;;;;;;6342272;22;20082;-65
2023/12/23 03:00:04;;;;;;;49.45;26.58;;;3.30;74.20;;;;;;6342135;22;20384;-65
2023/12/23 03:02:30;;;;;;;52.95;26.95;;;3.30;74.80;;;;;;6342371;22;19998;-64
2023/12/23 03:04:56;;;;;;;53.55;27.05;;;3.40;74.90;;;;;;6342464;22;19999;-64
2023/12/23 03:07:22;;;;;;;52.38;26.30;;;3.40;74.90;;;;;;6342000;22;20070;-64
2023/12/23 03:09:48;;;;;;;52.30;25.05;;;3.40;74.40;;;;;;6342073;22;19999;-64
2023/12/23 03:12:13;;;;;;;46.45;25.05;;;3.40;74.90;;;;;;6342437;22;20261;-64
2023/12/23 03:14:40;;;;;;;45.60;23.58;;;3.40;74.40;;;;;;6342354;22;20024;-64
2023/12/23 03:17:06;;;;;;;55.58;26.27;;;3.40;74.60;;;;;;6341815;22;20044;-64
2023/12/23 03:19:32;;;;;;;50.20;24.58;;;3.50;74.70;;;;;;6341965;22;20003;-64
2023/12/23 03:21:58;;;;;;;50.00;24.42;;;3.50;74.80;;;;;;6342342;22;20132;-64
2023/12/23 03:24:24;;;;;;;49.03;26.10;;;3.50;74.60;;;;;;6342241;22;20003;-64
2023/12/23 03:26:50;;;;;;;53.60;25.92;;;3.50;74.90;;;;;;6342092;22;20419;-64
2023/12/23 03:29:15;;;;;;;43.10;23.02;;;3.50;74.40;;;;;;6341918;22;20026;-64
2023/12/23 03:31:41;;;;;;;46.72;22.38;;;3.50;74.60;;;;;;6342559;22;20009;-64
2023/12/23 03:34:07;;;;;;;54.20;28.63;;;3.60;74.70;;;;;;6342557;22;20021;-64
2023/12/23 03:36:33;;;;;;;47.17;24.45;;;3.60;74.70;;;;;;6341712;22;19999;-64
2023/12/23 03:38:59;;;;;;;42.03;21.73;;;3.60;74.00;;;;;;6341681;22;20002;-64
2023/12/23 03:41:25;;;;;;;52.53;26.58;;;3.50;74.10;;;;;;6341835;22;19998;-64
2023/12/23 03:43:51;;;;;;;43.38;23.17;;;3.50;74.70;;;;;;6342105;22;20288;-64
2023/12/23 03:46:19;;;;;;;48.85;21.85;;;3.50;74.30;;;;;;6341687;22;20005;-64
2023/12/23 03:48:46;;;;;;;43.95;23.15;;;3.50;74.40;;;;;;6341581;22;20006;-64
2023/12/23 03:51:12;;;;;;;55.80;26.98;;;3.50;74.20;;;;;;6342062;22;20007;-64
2023/12/23 03:53:38;;;;;;;54.88;29.02;;;3.40;74.10;;;;;;6341709;22;20078;-64
2023/12/23 03:56:04;;;;;;;51.60;25.88;;;3.40;75.30;;;;;;6341743;22;20002;-64
2023/12/23 03:58:30;;;;;;;44.85;22.77;;;3.30;75.50;;;;;;6341557;22;20083;-64
2023/12/23 04:00:56;;;;;;;54.83;26.85;;;3.40;75.00;;;;;;6342353;22;19999;-64
2023/12/23 04:03:22;;;;;;;47.33;24.70;;;3.40;75.20;;;;;;6342052;22;20331;-64
2023/12/23 04:05:48;;;;;;;52.22;26.70;;;3.40;75.10;;;;;;6342286;22;20009;-64
2023/12/23 04:08:14;;;;;;;55.17;26.25;;;3.40;76.30;;;;;;6341528;22;20034;-64
2023/12/23 04:10:40;;;;;;;49.85;24.92;;;3.40;76.10;;;;;;6341933;22;20014;-64
2023/12/23 04:13:06;;;;;;;50.38;24.90;;;3.50;76.20;;;;;;6341685;22;20010;-64
2023/12/23 04:15:32;;;;;;;53.90;25.33;;;3.50;76.10;;;;;;6341645;22;20079;-64
2023/12/23 04:17:58;;;;;;;47.05;24.08;;;3.60;75.90;;;;;;6341391;22;19999;-64
2023/12/23 04:20:24;;;;;;;51.35;26.40;;;3.70;75.40;;;;;;6341661;22;20026;-64
2023/12/23 04:22:50;;;;;;;50.50;26.55;;;3.70;74.70;;;;;;6342267;22;20414;-64
2023/12/23 04:25:16;;;;;;;51.63;25.55;;;3.60;75.00;;;;;;6341514;22;19998;-64
2023/12/23 04:27:41;;;;;;;53.95;28.08;;;3.60;75.20;;;;;;6341776;22;20088;-64
2023/12/23 04:30:08;;;;;;;55.83;28.02;;;3.60;75.20;;;;;;6341508;22;20038;-64
2023/12/23 04:32:33;;;;;;;51.00;23.67;;;3.60;74.30;;;;;;6342147;22;19998;-64
2023/12/23 04:34:59;;;;;;;47.97;24.75;;;3.50;75.20;;;;;;6341870;22;20005;-64
2023/12/23 04:37:26;;;;;;;50.42;24.60;;;3.50;75.10;;;;;;6340970;22;20014;-64
2023/12/23 04:39:53;;;;;;;57.45;28.80;;;3.60;75.30;;;;;;6341754;22;20030;-64
2023/12/23 04:42:19;;;;;;;54.33;26.00;;;3.60;75.00;;;;;;6341406;22;20029;-64
2023/12/23 04:44:45;;;;;;;55.47;27.02;;;3.50;74.60;;;;;;6341350;22;20327;-64
2023/12/23 04:47:11;;;;;;;49.97;24.83;;;3.40;75.80;;;;;;6341661;22;19999;-65
2023/12/23 04:49:38;;;;;;;55.03;27.35;;;3.40;76.10;;;;;;6341695;22;20002;-64
2023/12/23 04:52:04;;;;;;;52.38;26.60;;;3.50;75.80;;;;;;6342015;22;20057;-64
2023/12/23 04:54:32;;;;;;;49.70;23.88;;;3.50;75.40;;;;;;6341376;22;19999;-64
2023/12/23 04:56:58;;;;;;;58.47;26.35;;;3.40;75.80;;;;;;6341042;22;20011;-65
2023/12/23 04:59:25;;;;;;;56.85;27.52;;;3.40;75.60;;;;;;6341364;22;20002;-64
2023/12/23 05:01:51;;;;;;;48.10;23.00;;;3.40;75.50;;;;;;6342378;22;20019;-64
2023/12/23 05:04:17;;;;;;;49.70;25.70;;;3.40;75.60;;;;;;6343840;22;20326;-64
2023/12/23 05:06:43;;;;;;;54.47;26.20;;;3.40;75.60;;;;;;6343081;22;20023;-64
2023/12/23 05:09:08;;;;;;;45.58;22.55;;;3.40;75.60;;;;;;6343480;22;19994;-64
2023/12/23 05:11:34;;;;;;;54.00;26.45;;;3.40;76.30;;;;;;6343754;22;20284;-64
2023/12/23 05:14:00;;;;;;;52.50;24.10;;;3.40;76.30;;;;;;6343448;22;20026;-64
2023/12/23 05:16:26;;;;;;;50.08;25.73;;;3.50;75.90;;;;;;6343604;22;20068;-64
2023/12/23 05:18:52;;;;;;;50.88;26.42;;;3.50;76.30;;;;;;6342921;22;19999;-64
2023/12/23 05:21:18;;;;;;;53.45;26.15;;;3.50;75.50;;;;;;6343022;22;19995;-64
2023/12/23 05:23:44;;;;;;;55.63;26.73;;;3.50;75.80;;;;;;6343022;22;20058;-64
2023/12/23 05:26:11;;;;;;;49.58;25.70;;;3.60;75.80;;;;;;6342975;22;20001;-64
2023/12/23 05:28:37;;;;;;;51.35;26.02;;;3.50;75.20;;;;;;6343163;22;20335;-64
2023/12/23 05:31:03;;;;;;;54.35;26.40;;;3.50;75.50;;;;;;6343208;22;20002;-64
2023/12/23 05:33:28;;;;;;;54.20;27.48;;;3.50;75.70;;;;;;6315717;22;20003;-64
2023/12/23 05:38:23;;;;;;;56.35;26.48;;;3.40;75.30;;;;;;6342542;22;20037;-64
2023/12/23 05:40:49;;;;;;;53.25;25.13;;;3.40;76.10;;;;;;6342849;22;20297;-64
2023/12/23 05:43:15;;;;;;;56.63;27.25;;;3.50;76.70;;;;;;6342709;22;20400;-64
2023/12/23 05:45:41;;;;;;;58.65;27.30;;;3.50;76.20;;;;;;6343081;22;20074;-64
2023/12/23 05:48:07;;;;;;;55.88;25.90;;;3.50;77.00;;;;;;6342650;22;20013;-64
2023/12/23 05:50:33;;;;;;;56.38;28.05;;;3.60;77.20;;;;;;6342726;22;20026;-64
2023/12/23 05:52:59;;;;;;;65.43;30.25;;;3.60;76.20;;;;;;6342986;22;20292;-64
2023/12/23 05:55:25;;;;;;;62.15;26.55;;;3.60;77.10;;;;;;6342720;22;20017;-64
2023/12/23 05:57:51;;;;;;;58.78;25.65;;;3.60;76.50;;;;;;6315280;22;20049;-64
2023/12/23 06:00:20;;;;;;;55.72;26.63;;;3.60;76.70;;;;;;6342628;22;20258;-64
2023/12/23 06:02:46;;;;;;;55.20;26.48;;;3.60;77.00;;;;;;6315444;22;20041;-64
2023/12/23 06:05:12;;;;;;;58.30;29.08;;;3.70;77.70;;;;;;6343241;22;20025;-64
2023/12/23 06:07:38;;;;;;;59.58;28.80;;;3.80;77.50;;;;;;6342424;22;20009;-64
2023/12/23 06:10:05;;;;;;;55.50;26.17;;;3.80;76.60;;;;;;6342599;22;20003;-64
2023/12/23 06:12:31;;;;;;;54.05;24.20;;;3.80;76.90;;;;;;6342451;22;20010;-64
2023/12/23 06:14:57;;;;;;;46.55;20.85;;;3.80;76.90;;;;;;6342546;22;20051;-64
2023/12/23 06:17:25;;;;;;;60.92;26.15;;;3.90;77.10;;;;;;6342261;22;20069;-64
2023/12/23 06:19:50;;;;;;;57.20;27.45;;;3.90;76.80;;;;;;6342446;22;19998;-64
2023/12/23 06:22:16;;;;;;;55.45;22.77;;;4.00;76.70;;;;;;6342750;22;19999;-64
2023/12/23 06:24:42;;;;;;;57.28;27.00;;;4.10;76.30;;;;;;6343067;22;20022;-64
2023/12/23 06:27:09;;;;;;;53.22;26.05;;;4.10;76.20;;;;;;6342247;22;20006;-64
2023/12/23 06:29:34;;;;;;;54.60;24.80;;;4.10;76.10;;;;;;6342356;22;20040;-64
2023/12/23 06:32:02;;;;;;;53.00;23.67;;;4.10;76.70;;;;;;6342964;22;19998;-64
2023/12/23 06:34:28;;;;;;;53.78;25.45;;;4.10;77.10;;;;;;6342579;22;20007;-64
2023/12/23 06:36:53;;;;;;;55.67;26.70;;;4.20;77.60;;;;;;6342454;22;20003;-64
2023/12/23 06:39:20;;;;;;;56.53;25.42;;;4.30;76.70;;;;;;6342229;22;19995;-64
2023/12/23 06:41:46;;;;;;;50.88;21.83;;;4.30;77.50;;;;;;6342946;22;20069;-64
2023/12/23 06:44:12;;;;;;;47.65;23.45;;;4.40;76.90;;;;;;6342318;22;20124;-65
2023/12/23 06:46:38;;;;;;;44.85;22.50;;;4.40;76.50;;;;;;6342210;22;20027;-64
2023/12/23 06:49:04;;;;;;;49.25;23.80;;;4.50;76.40;;;;;;6342219;22;19999;-64
2023/12/23 06:51:30;;;;;;;55.67;27.65;;;4.50;76.40;;;;;;6342886;22;20281;-64
2023/12/23 06:53:56;;;;;;;57.88;27.60;;;4.50;76.00;;;;;;6342196;22;20351;-64
2023/12/23 06:56:22;;;;;;;59.05;25.17;;;4.50;75.50;;;;;;6342745;22;20281;-64
2023/12/23 06:58:48;;;;;;;53.15;25.83;;;4.40;75.50;;;;;;6342366;22;20015;-64
2023/12/23 07:01:15;;;;;;;53.88;26.73;;;4.40;75.20;;;;;;6342157;22;20010;-64
2023/12/23 07:03:42;;;;;;;51.53;24.08;;;4.30;75.30;;;;;;6342170;22;20036;-64
2023/12/23 07:06:12;;;;;;;47.05;23.40;;;4.30;75.20;;;;;;6342095;22;19999;-64
2023/12/23 07:08:39;;;;;;;53.83;25.08;;;4.30;75.40;;;;;;6341792;22;20003;-64
2023/12/23 07:11:06;;;;;;;62.97;30.35;;;4.30;75.60;;;;;;6342079;22;20006;-64
2023/12/23 07:13:32;;;;;;;56.10;28.08;;;4.30;75.40;;;;;;6342047;22;20308;-64
2023/12/23 07:15:58;;;;;;;55.50;27.48;;;4.30;75.40;;;;;;6342349;22;20007;-64
2023/12/23 07:18:24;;;;;;;59.30;29.42;;;4.30;75.20;;;;;;6341901;22;20002;-64
2023/12/23 07:20:51;;;;;;;55.03;26.00;;;4.20;75.10;;;;;;6341947;22;19998;-64
2023/12/23 07:23:17;;;;;;;58.35;29.08;;;4.20;75.00;;;;;;6342104;22;20321;-64
2023/12/23 07:25:43;;;;;;;54.20;29.00;;;4.20;75.30;;;;;;6341808;22;19994;-64
2023/12/23 07:28:08;;;;;;;69.53;35.05;;;4.20;75.10;;;;;;6342445;22;20041;-64
2023/12/23 07:30:40;;;;;;;75.63;38.53;;;4.20;75.30;;;;;;6342570;22;19999;-64
2023/12/23 07:33:06;;;;;;;70.63;31.88;;;4.20;75.50;;;;;;6341823;22;20003;-64
2023/12/23 07:35:32;;;;;;;59.40;29.00;;;4.10;75.60;;;;;;6341819;22;20006;-64
2023/12/23 07:37:58;;;;;;;62.35;30.42;;;4.10;75.80;;;;;;6341331;22;20017;-64
2023/12/23 07:40:24;;;;;;;57.45;28.02;;;4.10;76.00;;;;;;6342461;22;19999;-64
2023/12/23 07:42:50;;;;;;;54.17;26.73;;;4.20;76.10;;;;;;6342363;22;20074;-64
2023/12/23 07:45:16;;;;;;;62.90;30.10;;;4.20;75.80;;;;;;6342334;22;19999;-64
2023/12/23 07:47:42;;;;;;;59.13;30.77;;;4.30;75.80;;;;;;6341912;22;20302;-64
2023/12/23 07:50:08;;;;;;;57.55;28.08;;;4.30;76.00;;;;;;6341593;22;20357;-64
2023/12/23 07:52:34;;;;;;;65.05;31.35;;;4.30;75.90;;;;;;6341973;22;20033;-64
2023/12/23 07:55:00;;;;;;;61.42;29.90;;;4.40;76.00;;;;;;6342011;22;20352;-64
2023/12/23 07:57:26;;;;;;;60.17;28.55;;;4.40;75.60;;;;;;6341435;22;20030;-64
2023/12/23 07:59:52;;;;;;;67.93;31.83;;;4.40;76.00;;;;;;6342301;22;20009;-64
2023/12/23 08:02:19;;;;;;;59.08;30.55;;;4.50;75.90;;;;;;6341935;22;20355;-64
2023/12/23 08:04:45;;;;;;;60.35;28.67;;;4.50;75.80;;;;;;6341515;22;20415;-64
2023/12/23 08:07:11;;;;;;;59.03;28.55;;;4.60;76.00;;;;;;6341510;22;19999;-64
2023/12/23 08:09:37;;;;;;;64.57;30.75;;;4.70;76.00;;;;;;6341883;22;20006;-64
2023/12/23 08:12:04;;;;;;;55.65;25.73;;;4.80;75.90;;;;;;6314690;22;20036;-64
2023/12/23 08:14:29;;;;;;;58.25;29.58;;;4.80;75.90;;;;;;6341838;22;20017;-64
2023/12/23 08:16:55;;;;;;;58.90;27.75;;;4.90;76.00;;;;;;6341347;22;20094;-64
2023/12/23 08:19:21;;;;;;;52.05;24.95;;;5.00;76.10;;;;;;6341842;22;20009;-64
2023/12/23 08:21:48;;;;;;;57.92;27.38;;;5.10;76.40;;;;;;6341815;22;20048;-64
2023/12/23 08:24:16;;;;;;;56.72;27.48;;;5.30;76.20;;;;;;6341509;22;20006;-64
2023/12/23 08:26:42;;;;;;;61.25;28.95;;;5.40;76.00;;;;;;6341938;22;19995;-64
2023/12/23 08:29:09;;;;;;;65.90;31.15;;;5.50;76.00;;;;;;6341765;22;20002;-64
2023/12/23 08:31:44;;;;;;;62.70;27.58;;;5.60;75.90;;;;;;6341349;22;20045;-64
2023/12/23 08:34:10;;;;;;;59.53;30.50;;;5.70;75.70;;;;;;6341787;22;19995;-64
2023/12/23 08:36:36;;;;;;;58.53;29.27;;;5.90;75.80;;;;;;6342479;22;20006;-64
2023/12/23 08:39:02;;;;;;;54.53;26.80;;;6.00;75.90;;;;;;6343263;22;20003;-64
2023/12/23 08:41:28;;;;;;;53.92;26.52;;;6.20;75.80;;;;;;6343462;22;19999;-64
2023/12/23 08:43:54;;;;;;;60.75;29.83;;;6.30;75.60;;;;;;6343760;22;20018;-64
2023/12/23 08:46:20;;;;;;;57.83;28.75;;;6.40;75.70;;;;;;6343548;22;19998;-64
2023/12/23 08:48:46;;;;;;;53.17;27.88;;;6.60;75.30;;;;;;6343975;22;19998;-64
2023/12/23 08:51:12;;;;;;;56.28;29.40;;;6.60;75.10;;;;;;6343270;22;20023;-64
2023/12/23 08:53:38;;;;;;;56.75;27.83;;;6.70;74.60;;;;;;6343926;22;20327;-64
2023/12/23 08:56:05;;;;;;;51.55;27.13;;;6.80;74.50;;;;;;6343930;22;19998;-64
2023/12/23 08:58:31;;;;;;;51.83;27.17;;;6.80;74.60;;;;;;6343065;22;20069;-64
2023/12/23 09:00:58;;;;;;;52.58;28.83;;;6.80;74.40;;;;;;6343141;22;20154;-64
2023/12/23 09:03:23;;;;;;;51.40;25.75;;;6.90;74.50;;;;;;6313982;22;20007;-69
2023/12/23 09:05:50;;;;;;;53.35;27.05;;;7.00;74.50;;;;;;6343839;22;20086;-68
2023/12/23 09:08:17;;;;;;;53.53;27.02;;;7.10;74.20;;;;;;6343109;22;20081;-68
2023/12/23 09:10:43;;;;;;;47.25;25.70;;;7.10;74.20;;;;;;6343007;22;20013;-69
2023/12/23 09:13:09;;;;;;;50.55;25.10;;;7.20;74.10;;;;;;6343317;22;20022;-69
2023/12/23 09:15:35;;;;;;;41.65;23.70;;;7.30;74.00;;;;;;6342923;22;20400;-67
2023/12/23 09:18:00;;;;;;;63.95;33.20;;;7.40;74.00;;;;;;6342837;22;20003;-69
2023/12/23 09:20:28;;;;;;;56.30;28.70;;;7.50;74.20;;;;;;6342945;22;20010;-68
2023/12/23 09:22:54;;;;;;;58.60;30.27;;;7.60;74.00;;;;;;6343352;22;20007;-68
2023/12/23 09:25:20;;;;;;;61.13;32.72;;;7.80;74.00;;;;;;6343219;22;20085;-70
2023/12/23 09:27:46;;;;;;;48.08;26.67;;;7.90;73.80;;;;;;6342844;22;19999;-69
2023/12/23 09:30:12;;;;;;;53.53;28.83;;;8.00;73.60;;;;;;6342824;22;20304;-69
2023/12/23 09:32:38;;;;;;;50.97;29.70;;;8.20;73.60;;;;;;6342643;22;20002;-69
2023/12/23 09:35:04;;;;;;;48.78;25.55;;;8.30;73.00;;;;;;6342828;22;20003;-68
2023/12/23 09:37:30;;;;;;;44.90;24.80;;;8.40;73.20;;;;;;6342610;22;20006;-69
2023/12/23 09:39:59;;;;;;;50.60;27.33;;;8.50;72.80;;;;;;6342846;22;20026;-68
2023/12/23 09:42:25;;;;;;;53.03;27.13;;;8.60;72.70;;;;;;6342986;22;20095;-69
2023/12/23 09:44:51;;;;;;;57.30;28.98;;;8.60;72.40;;;;;;6342699;22;20002;-69
2023/12/23 09:47:17;;;;;;;48.05;24.83;;;8.80;71.90;;;;;;6342375;22;20007;-69
2023/12/23 09:49:43;;;;;;;47.22;25.13;;;8.90;72.00;;;;;;6342629;22;20070;-68
2023/12/23 09:52:11;;;;;;;48.72;25.90;;;8.90;71.80;;;;;;6342521;22;20022;-69
2023/12/23 09:54:47;;;;;;;58.70;29.63;;;9.00;71.70;;;;;;6316947;22;20015;-70
2023/12/23 09:57:14;;;;;;;50.75;27.88;;;9.10;71.90;;;;;;6342461;22;20378;-67
2023/12/23 09:59:40;;;;;;;60.67;32.25;;;9.30;71.60;;;;;;6342525;22;19999;-70
2023/12/23 10:02:06;;;;;;;58.33;31.27;;;9.40;71.10;;;;;;6342872;22;20074;-69
2023/12/23 10:04:33;;;;;;;59.05;32.97;;;9.40;71.40;;;;;;6342421;22;19995;-68
2023/12/23 10:06:59;;;;;;;64.70;33.38;;;9.50;71.40;;;;;;6342476;22;20025;-68
2023/12/23 10:09:30;;;;;;;62.40;30.52;;;9.60;71.50;;;;;;6342467;22;20396;-68
2023/12/23 10:11:56;;;;;;;58.58;28.73;;;9.60;71.00;;;;;;6342559;22;20291;-68
2023/12/23 10:14:25;;;;;;;49.70;26.77;;;9.70;70.90;;;;;;6315193;22;20007;-69
2023/12/23 10:16:53;;;;;;;42.72;24.08;;;9.70;70.70;;;;;;6315170;22;20002;-69
2023/12/23 10:19:19;;;;;;;51.10;26.05;;;9.80;70.60;;;;;;6342371;22;20028;-69
2023/12/23 10:21:45;;;;;;;45.47;24.48;;;9.90;70.60;;;;;;6342452;22;20006;-69
2023/12/23 10:24:11;;;;;;;48.20;24.92;;;9.90;70.30;;;;;;6343020;22;19995;-68
2023/12/23 10:26:38;;;;;;;45.28;24.10;;;10.00;70.50;;;;;;6342312;22;19999;-67
2023/12/23 10:29:06;;;;;;;53.10;26.30;;;10.10;70.20;;;;;;6342254;22;19998;-67
2023/12/23 10:31:35;;;;;;;42.45;23.20;;;10.20;70.30;;;;;;6342244;22;20028;-67
2023/12/23 10:34:11;;;;;;;43.05;23.40;;;10.30;70.30;;;;;;6342579;22;20006;-68
2023/12/23 10:36:42;;;;;;;41.72;22.85;;;10.40;70.10;;;;;;6342600;22;20026;-68
2023/12/23 10:39:35;;;;;;;39.78;21.45;;;10.40;70.40;;;;;;6342631;22;19999;-68
2023/12/23 10:42:04;;;;;;;44.35;22.50;;;10.60;70.10;;;;;;6335919;22;20025;-68
2023/12/23 10:44:32;;;;;;;51.78;26.25;;;10.70;69.90;;;;;;6342055;22;20057;-69
2023/12/23 10:46:58;;;;;;;42.63;23.08;;;10.70;69.50;;;;;;6342433;22;20317;-68
2023/12/23 10:49:25;;;;;;;47.83;23.80;;;10.80;69.70;;;;;;6342465;22;20014;-68
2023/12/23 10:51:54;;;;;;;49.15;25.55;;;10.90;70.00;;;;;;6314869;22;19995;-70
2023/12/23 10:54:21;;;;;;;49.03;25.50;;;11.00;70.10;;;;;;6315346;22;20341;-68
2023/12/23 10:56:49;;;;;;;49.00;27.33;;;11.10;69.80;;;;;;6342337;22;20002;-70
2023/12/23 10:59:15;;;;;;;51.03;26.48;;;11.20;69.60;;;;;;6342004;22;20309;-68
2023/12/23 11:01:42;;;;;;;40.80;22.90;;;11.20;69.00;;;;;;6342400;22;20002;-68
2023/12/23 11:04:09;;;;;;;40.08;22.70;;;11.30;69.00;;;;;;6342380;22;20078;-69
2023/12/23 11:06:41;;;;;;;39.72;20.98;;;11.40;68.60;;;;;;6342289;22;20029;-68
2023/12/23 11:09:09;;;;;;;45.50;24.13;;;11.40;68.20;;;;;;6341990;22;19995;-69
2023/12/23 11:11:36;;;;;;;51.95;28.13;;;11.50;68.10;;;;;;6342027;22;20034;-69
2023/12/23 11:14:04;;;;;;;49.67;26.45;;;11.60;67.60;;;;;;6342524;22;20250;-69
2023/12/23 11:16:30;;;;;;;48.55;26.33;;;11.60;67.70;;;;;;6341865;22;20297;-69
2023/12/23 11:18:56;;;;;;;46.65;25.83;;;11.70;67.50;;;;;;6342448;22;20052;-69
2023/12/23 11:21:23;;;;;;;48.08;27.25;;;11.70;67.60;;;;;;6342238;22;20311;-68
2023/12/23 11:23:49;;;;;;;51.45;27.50;;;11.80;67.30;;;;;;6342085;22;20002;-69
2023/12/23 11:26:41;;;;;;;49.75;26.45;;;11.80;67.20;;;;;;6342148;22;20056;-69
2023/12/23 11:29:14;;;;;;;49.95;27.90;;;11.90;67.60;;;;;;6341719;22;20400;-69
2023/12/23 11:31:41;;;;;;;50.13;28.08;;;11.90;67.50;;;;;;6341766;22;20074;-69
2023/12/23 11:34:19;;;;;;;46.90;25.77;;;12.00;67.20;;;;;;6341702;22;19998;-69
2023/12/23 11:36:48;;;;;;;64.90;33.17;;;12.00;67.50;;;;;;6341595;22;20024;-68
2023/12/23 11:39:16;;;;;;;54.03;30.70;;;12.00;66.30;;;;;;6342014;22;19995;-69
2023/12/23 11:41:45;;;;;;;49.05;28.92;;;12.00;65.80;;;;;;6341692;22;19995;-69
2023/12/23 11:44:11;;;;;;;54.67;29.67;;;11.90;65.60;;;;;;6288958;22;19999;-69
2023/12/23 11:46:43;;;;;;;60.05;32.85;;;11.90;66.30;;;;;;6341600;22;20048;-69
2023/12/23 11:49:10;;;;;;;59.15;31.92;;;12.00;66.40;;;;;;6341665;22;20392;-69
2023/12/23 11:51:40;;;;;;;64.85;35.38;;;12.00;66.60;;;;;;6341662;22;20396;-69
2023/12/23 11:54:07;;;;;;;58.25;32.38;;;12.10;66.40;;;;;;6341317;22;20090;-69
2023/12/23 11:56:34;;;;;;;62.13;33.90;;;12.10;66.40;;;;;;6341534;22;19999;-68
2023/12/23 11:59:03;;;;;;;64.03;36.03;;;12.20;66.10;;;;;;6269705;22;20022;-69
2023/12/23 12:01:35;;;;;;;62.05;34.40;;;12.20;66.50;;;;;;6310563;22;20039;-69
2023/12/23 12:04:01;;;;;;;65.40;36.63;;;12.20;66.70;;;;;;6310244;22;20027;-69
2023/12/23 12:06:27;;;;;;;60.55;34.33;;;12.20;66.20;;;;;;6310582;22;20007;-69
2023/12/23 12:08:54;;;;;;;62.38;35.22;;;12.20;66.20;;;;;;6292479;22;20404;-70
2023/12/23 12:11:22;;;;;;;67.32;37.42;;;12.20;66.40;;;;;;6279198;22;20000;-68
2023/12/23 12:13:48;;;;;;;60.60;33.80;;;12.20;65.90;;;;;;6252966;22;20296;-69
2023/12/23 12:16:14;;;;;;;57.05;33.28;;;12.20;66.20;;;;;;6279895;22;20026;-68
2023/12/23 12:18:41;;;;;;;61.38;34.83;;;12.20;66.50;;;;;;6279317;22;20101;-68
2023/12/23 12:21:08;;;;;;;59.63;32.08;;;12.20;66.60;;;;;;6279523;22;20070;-68
2023/12/23 12:23:34;;;;;;;60.22;34.13;;;12.20;66.70;;;;;;6253341;22;20075;-69
2023/12/23 12:26:00;;;;;;;54.85;31.50;;;12.20;66.80;;;;;;6279832;22;20000;-69
2023/12/23 12:28:27;;;;;;;61.63;33.05;;;12.20;66.80;;;;;;6275634;22;20043;-74
2023/12/23 12:30:53;;;;;;;62.00;35.42;;;12.30;66.80;;;;;;6310318;22;20368;-75
2023/12/23 12:33:18;;;;;;;66.20;36.90;;;12.30;66.90;;;;;;6311086;22;20102;-75
2023/12/23 12:35:46;;;;;;;64.03;34.58;;;12.30;66.70;;;;;;6310935;22;20115;-75